createdAt,value
2019-02-17T00:00:48.771Z,78.30
2019-02-17T00:03:43.456Z,78.70
2019-02-17T00:06:38.341Z,78.90
2019-02-17T00:09:33.215Z,78.80
2019-02-17T00:12:27.829Z,78.50
2019-02-17T00:15:22.243Z,78.50
2019-02-17T00:18:17.086Z,78.50
2019-02-17T00:21:11.784Z,78.70
2019-02-17T00:24:06.786Z,79.00
2019-02-17T00:27:02.481Z,79.20
2019-02-17T00:29:57.276Z,79.20
2019-02-17T00:32:51.773Z,79.00
2019-02-17T00:35:46.376Z,79.00
2019-02-17T00:38:41.487Z,79.00
2019-02-17T00:41:36.086Z,79.20
2019-02-17T00:44:30.692Z,79.20
2019-02-17T00:47:25.555Z,79.20
2019-02-17T00:50:20.634Z,79.30
2019-02-17T00:53:15.458Z,79.40
2019-02-17T00:56:10.435Z,79.30
2019-02-17T00:59:10.263Z,79.40
2019-02-17T01:02:01.964Z,79.40
2019-02-17T01:04:56.649Z,79.50
2019-02-17T01:07:51.531Z,79.70
2019-02-17T01:10:46.168Z,79.50
2019-02-17T01:13:40.786Z,79.70
2019-02-17T01:16:35.373Z,79.90
2019-02-17T01:19:30.005Z,79.80
2019-02-17T01:22:24.540Z,79.90
2019-02-17T01:25:19.226Z,80.00
2019-02-17T01:28:14.195Z,80.20
2019-02-17T01:31:09.308Z,80.40
2019-02-17T01:34:15.297Z,80.40
2019-02-17T01:37:09.785Z,80.60
2019-02-17T01:40:05.028Z,80.50
2019-02-17T01:42:59.860Z,80.60
2019-02-17T01:45:54.967Z,80.40
2019-02-17T01:48:49.734Z,80.40
2019-02-17T01:51:44.639Z,80.20
2019-02-17T01:54:39.135Z,80.00
2019-02-17T01:57:34.055Z,79.90
2019-02-17T02:00:30.040Z,79.90
2019-02-17T02:03:24.861Z,79.70
2019-02-17T02:06:19.671Z,79.50
2019-02-17T02:09:15.351Z,79.30
2019-02-17T02:12:10.338Z,79.10
2019-02-17T02:15:05.633Z,79.00
2019-02-17T02:18:00.521Z,79.00
2019-02-17T02:20:55.115Z,79.00
2019-02-17T02:23:50.062Z,79.00
2019-02-17T02:26:44.697Z,79.00
2019-02-17T02:29:41.403Z,78.50
2019-02-17T02:32:34.615Z,78.40
2019-02-17T02:35:29.347Z,78.60
2019-02-17T02:38:24.277Z,78.60
2019-02-17T02:41:18.988Z,78.20
2019-02-17T02:44:13.929Z,77.90
2019-02-17T02:47:08.509Z,77.60
2019-02-17T02:50:03.245Z,77.60
2019-02-17T02:52:57.768Z,77.30
2019-02-17T02:55:53.256Z,76.20
2019-02-17T02:58:47.807Z,75.00
2019-02-17T03:01:42.506Z,74.40
2019-02-17T03:04:37.479Z,73.60
2019-02-17T03:07:33.017Z,73.50
2019-02-17T03:10:27.913Z,73.40
2019-02-17T03:13:22.465Z,73.00
2019-02-17T03:16:17.156Z,72.80
2019-02-17T03:19:11.736Z,72.30
2019-02-17T03:22:06.471Z,71.90
2019-02-17T03:25:01.328Z,71.50
2019-02-17T03:27:56.347Z,71.50
2019-02-17T03:30:51.136Z,71.50
2019-02-17T03:33:45.728Z,71.30
2019-02-17T03:36:41.188Z,70.90
2019-02-17T03:39:36.120Z,71.00
2019-02-17T03:42:31.426Z,71.00
2019-02-17T03:45:26.588Z,70.80
2019-02-17T03:48:21.171Z,70.90
2019-02-17T03:51:15.592Z,71.10
2019-02-17T03:54:10.245Z,70.90
2019-02-17T03:57:05.262Z,70.80
2019-02-17T04:00:00.402Z,70.50
2019-02-17T04:02:55.034Z,70.00
2019-02-17T04:05:49.858Z,70.10
2019-02-17T04:08:44.544Z,70.00
2019-02-17T04:11:39.200Z,69.70
2019-02-17T04:14:34.257Z,69.40
2019-02-17T04:17:29.671Z,69.50
2019-02-17T04:20:24.582Z,69.70
2019-02-17T04:23:30.388Z,69.80
2019-02-17T04:26:15.817Z,69.80
2019-02-17T04:29:11.382Z,69.70
2019-02-17T04:32:06.108Z,69.40
2019-02-17T04:35:02.194Z,69.30
2019-02-17T04:37:57.878Z,69.10
2019-02-17T04:40:52.918Z,69.00
2019-02-17T04:43:47.814Z,69.00
2019-02-17T04:46:42.706Z,69.00
2019-02-17T04:49:37.771Z,68.50
2019-02-17T04:52:32.699Z,67.60
2019-02-17T04:55:27.658Z,67.60
2019-02-17T04:58:22.911Z,67.40
2019-02-17T05:01:18.455Z,66.90
2019-02-17T05:04:13.543Z,66.50
2019-02-17T05:07:08.200Z,66.10
2019-02-17T05:10:03.745Z,66.00
2019-02-17T05:12:58.440Z,66.20
2019-02-17T05:15:53.448Z,65.70
2019-02-17T05:18:48.420Z,65.50
2019-02-17T05:21:43.949Z,65.60
2019-02-17T05:24:39.395Z,66.00
2019-02-17T05:27:34.487Z,65.50
2019-02-17T05:30:29.432Z,64.70
2019-02-17T05:33:24.299Z,64.30
2019-02-17T05:36:19.107Z,63.60
2019-02-17T05:39:14.908Z,63.00
2019-02-17T05:42:09.753Z,62.80
2019-02-17T05:45:05.629Z,62.60
2019-02-17T05:48:00.894Z,62.20
2019-02-17T05:50:56.078Z,61.30
2019-02-17T05:53:50.803Z,60.90
2019-02-17T05:56:45.765Z,60.00
2019-02-17T05:59:40.458Z,59.60
2019-02-17T06:02:35.655Z,59.50
2019-02-17T06:05:31.122Z,59.40
2019-02-17T06:08:26.143Z,59.30
2019-02-17T06:11:21.182Z,58.20
2019-02-17T06:14:16.007Z,58.20
2019-02-17T06:17:10.709Z,57.50
2019-02-17T06:20:06.113Z,56.20
2019-02-17T06:23:01.858Z,56.60
2019-02-17T06:25:57.185Z,56.50
2019-02-17T06:28:52.091Z,56.30
2019-02-17T06:31:46.700Z,56.20
2019-02-17T06:34:41.487Z,55.90
2019-02-17T06:37:36.096Z,55.80
2019-02-17T06:40:31.201Z,54.80
2019-02-17T06:43:26.151Z,55.00
2019-02-17T06:46:25.680Z,54.20
2019-02-17T06:49:20.731Z,54.40
2019-02-17T06:52:16.912Z,54.30
2019-02-17T06:55:36.125Z,54.00
2019-02-17T06:58:31.198Z,54.10
2019-02-17T07:01:25.825Z,54.10
2019-02-17T07:04:21.296Z,53.70
2019-02-17T07:07:16.844Z,53.70
2019-02-17T07:10:11.929Z,53.70
2019-02-17T07:13:06.880Z,53.80
2019-02-17T07:16:01.619Z,53.90
2019-02-17T07:18:56.550Z,54.30
2019-02-17T07:21:51.967Z,54.50
2019-02-17T07:24:47.197Z,54.40
2019-02-17T07:27:42.158Z,53.80
2019-02-17T07:30:36.932Z,52.30
2019-02-17T07:33:32.692Z,52.20
2019-02-17T07:36:27.513Z,52.60
2019-02-17T07:39:22.803Z,52.30
2019-02-17T07:42:17.923Z,52.30
2019-02-17T07:45:12.730Z,52.10
2019-02-17T07:48:07.774Z,51.90
2019-02-17T07:51:02.822Z,51.60
2019-02-17T07:53:58.350Z,51.80
2019-02-17T07:56:53.379Z,51.60
2019-02-17T07:59:48.681Z,51.60
2019-02-17T08:02:44.103Z,51.90
2019-02-17T08:05:38.998Z,52.30
2019-02-17T08:08:33.805Z,52.10
2019-02-17T08:11:29.086Z,51.80
2019-02-17T08:14:24.368Z,52.00
2019-02-17T08:17:19.196Z,51.30
2019-02-17T08:20:14.320Z,50.90
2019-02-17T08:23:09.340Z,51.10
2019-02-17T08:26:04.133Z,51.10
2019-02-17T08:28:59.644Z,51.20
2019-02-17T08:31:56.106Z,50.90
2019-02-17T08:34:50.487Z,50.80
2019-02-17T08:37:45.969Z,50.60
2019-02-17T08:40:41.266Z,50.50
2019-02-17T08:43:36.592Z,50.50
2019-02-17T08:46:31.412Z,50.30
2019-02-17T08:49:26.443Z,50.70
2019-02-17T08:52:21.357Z,51.20
2019-02-17T08:55:16.684Z,51.10
2019-02-17T08:58:11.938Z,50.90
2019-02-17T09:01:07.512Z,50.20
2019-02-17T09:04:02.650Z,50.10
2019-02-17T09:06:57.758Z,50.30
2019-02-17T09:09:52.780Z,50.40
2019-02-17T09:12:47.805Z,50.20
2019-02-17T09:15:42.975Z,50.10
2019-02-17T09:18:38.228Z,49.60
2019-02-17T09:21:32.982Z,49.90
2019-02-17T09:24:28.186Z,50.00
2019-02-17T09:27:23.076Z,50.00
2019-02-17T09:30:19.934Z,50.20
2019-02-17T09:33:15.233Z,49.90
2019-02-17T09:36:10.596Z,49.70
2019-02-17T09:39:07.736Z,49.30
2019-02-17T09:42:02.069Z,49.40
2019-02-17T09:44:56.821Z,49.20
2019-02-17T09:47:51.388Z,49.10
2019-02-17T09:50:46.542Z,49.20
2019-02-17T09:53:41.829Z,49.20
2019-02-17T09:56:36.389Z,48.60
2019-02-17T09:59:31.223Z,48.60
2019-02-17T10:02:26.775Z,48.10
2019-02-17T10:05:21.083Z,47.40
2019-02-17T10:08:15.833Z,46.30
2019-02-17T10:11:10.634Z,46.10
2019-02-17T10:14:05.454Z,46.10
2019-02-17T10:17:00.249Z,46.40
2019-02-17T10:19:55.012Z,46.30
2019-02-17T10:22:49.860Z,46.30
2019-02-17T10:25:44.556Z,46.20
2019-02-17T10:28:42.445Z,46.50
2019-02-17T10:31:34.451Z,46.60
2019-02-17T10:34:29.505Z,46.20
2019-02-17T10:37:24.240Z,46.10
2019-02-17T10:40:19.310Z,46.30
2019-02-17T10:43:14.240Z,46.20
2019-02-17T10:46:09.215Z,46.10
2019-02-17T10:49:04.278Z,46.20
2019-02-17T10:51:58.972Z,46.30
2019-02-17T10:54:53.602Z,46.20
2019-02-17T10:57:49.409Z,46.40
2019-02-17T11:00:44.158Z,46.20
2019-02-17T11:03:38.833Z,46.10
2019-02-17T11:06:33.846Z,46.10
2019-02-17T11:09:28.564Z,46.10
2019-02-17T11:12:23.711Z,46.30
2019-02-17T11:15:20.395Z,46.50
2019-02-17T11:18:15.249Z,46.80
2019-02-17T11:21:10.210Z,47.00
2019-02-17T11:24:04.989Z,47.20
2019-02-17T11:26:59.533Z,47.10
2019-02-17T11:29:54.321Z,47.20
2019-02-17T11:32:57.697Z,46.50
2019-02-17T11:35:44.096Z,47.40
2019-02-17T11:38:38.995Z,47.70
2019-02-17T11:41:33.810Z,48.00
2019-02-17T11:44:28.643Z,48.50
2019-02-17T11:47:23.589Z,48.00
2019-02-17T11:50:19.443Z,48.10
2019-02-17T11:53:14.086Z,48.10
2019-02-17T11:56:08.418Z,48.10
2019-02-17T11:59:03.094Z,48.00
2019-02-17T12:01:57.790Z,48.10
2019-02-17T12:04:52.856Z,48.30
2019-02-17T12:07:47.779Z,48.30
2019-02-17T12:10:42.651Z,48.60
2019-02-17T12:13:37.256Z,48.80
2019-02-17T12:16:36.941Z,48.90
2019-02-17T12:19:27.516Z,49.20
2019-02-17T12:22:27.518Z,49.40
2019-02-17T12:25:30.261Z,49.40
2019-02-17T12:28:35.809Z,49.40
2019-02-17T12:31:34.188Z,49.80
2019-02-17T12:34:29.142Z,50.00
2019-02-17T12:37:24.430Z,50.10
2019-02-17T12:40:19.415Z,50.00
2019-02-17T12:43:14.269Z,50.10
2019-02-17T12:46:09.358Z,50.50
2019-02-17T12:49:04.125Z,50.60
2019-02-17T12:51:59.438Z,50.80
2019-02-17T12:54:55.996Z,51.20
2019-02-17T12:57:50.975Z,51.50
2019-02-17T13:00:45.886Z,51.60
2019-02-17T13:03:40.474Z,51.90
2019-02-17T13:06:35.440Z,52.20
2019-02-17T13:09:30.376Z,52.60
2019-02-17T13:12:25.178Z,52.90
2019-02-17T13:15:20.117Z,53.00
2019-02-17T13:18:14.691Z,53.10
2019-02-17T13:21:09.605Z,53.20
2019-02-17T13:24:04.157Z,53.50
2019-02-17T13:26:58.967Z,53.80
2019-02-17T13:29:53.793Z,54.00
2019-02-17T13:32:48.669Z,54.00
2019-02-17T13:35:43.899Z,54.20
2019-02-17T13:38:38.708Z,54.10
2019-02-17T13:41:33.597Z,54.10
2019-02-17T13:44:28.401Z,54.20
2019-02-17T13:47:23.546Z,54.00
2019-02-17T13:50:18.681Z,53.90
2019-02-17T13:53:13.691Z,53.90
2019-02-17T13:56:08.301Z,54.00
2019-02-17T13:59:03.301Z,54.20
2019-02-17T14:01:57.960Z,54.40
2019-02-17T14:04:52.575Z,54.40
2019-02-17T14:07:47.316Z,54.30
2019-02-17T14:10:42.438Z,54.20
2019-02-17T14:13:37.340Z,54.30
2019-02-17T14:16:31.870Z,54.40
2019-02-17T14:19:26.677Z,54.20
2019-02-17T14:22:21.491Z,54.20
2019-02-17T14:25:16.381Z,54.30
2019-02-17T14:28:11.166Z,54.30
2019-02-17T14:31:06.122Z,54.30
2019-02-17T14:34:01.210Z,54.30
2019-02-17T14:36:55.980Z,54.40
2019-02-17T14:39:50.850Z,54.40
2019-02-17T14:42:45.782Z,54.30
2019-02-17T14:45:40.474Z,54.20
2019-02-17T14:48:37.024Z,54.30
2019-02-17T14:51:32.052Z,54.60
2019-02-17T14:54:26.983Z,54.60
2019-02-17T14:57:22.051Z,54.40
2019-02-17T15:00:17.190Z,54.00
2019-02-17T15:03:11.710Z,53.80
2019-02-17T15:06:06.900Z,53.50
2019-02-17T15:09:01.681Z,53.20
2019-02-17T15:11:57.062Z,52.90
2019-02-17T15:14:51.588Z,52.60
2019-02-17T15:17:46.089Z,52.30
2019-02-17T15:20:40.758Z,52.10
2019-02-17T15:23:35.671Z,52.00
2019-02-17T15:26:30.500Z,51.70
2019-02-17T15:29:25.273Z,51.60
2019-02-17T15:32:20.129Z,51.60
2019-02-17T15:35:14.845Z,51.60
2019-02-17T15:38:09.727Z,51.30
2019-02-17T15:41:04.591Z,50.70
2019-02-17T15:43:59.498Z,50.30
2019-02-17T15:46:54.352Z,50.20
2019-02-17T15:49:48.949Z,49.90
2019-02-17T15:52:44.088Z,49.80
2019-02-17T15:55:39.171Z,50.00
2019-02-17T15:58:33.936Z,50.20
2019-02-17T16:01:28.878Z,49.80
2019-02-17T16:04:28.574Z,49.70
2019-02-17T16:07:18.822Z,49.50
2019-02-17T16:10:14.899Z,49.50
2019-02-17T16:13:09.800Z,49.50
2019-02-17T16:16:04.597Z,49.20
2019-02-17T16:18:59.641Z,49.40
2019-02-17T16:21:54.658Z,49.20
2019-02-17T16:24:49.128Z,49.10
2019-02-17T16:27:44.941Z,49.00
2019-02-17T16:30:39.731Z,49.10
2019-02-17T16:33:34.692Z,48.90
2019-02-17T16:36:29.752Z,49.10
2019-02-17T16:39:24.419Z,49.20
2019-02-17T16:42:18.979Z,49.00
2019-02-17T16:45:15.156Z,49.20
2019-02-17T16:48:09.930Z,49.20
2019-02-17T16:51:05.377Z,49.40
2019-02-17T16:54:00.173Z,49.30
2019-02-17T16:56:55.158Z,49.40
2019-02-17T16:59:49.718Z,49.40
2019-02-17T17:02:44.765Z,49.40
2019-02-17T17:05:39.629Z,49.40
2019-02-17T17:08:34.645Z,49.40
2019-02-17T17:11:29.232Z,49.40
2019-02-17T17:14:23.857Z,49.30
2019-02-17T17:17:18.458Z,49.30
2019-02-17T17:20:13.768Z,49.50
2019-02-17T17:23:08.423Z,49.40
2019-02-17T17:26:03.090Z,49.20
2019-02-17T17:28:57.966Z,49.30
2019-02-17T17:31:52.767Z,49.40
2019-02-17T17:34:47.587Z,49.20
2019-02-17T17:37:42.505Z,49.30
2019-02-17T17:40:37.327Z,49.40
2019-02-17T17:43:32.112Z,49.30
2019-02-17T17:46:27.125Z,49.20
2019-02-17T17:49:21.802Z,49.20
2019-02-17T17:52:17.615Z,49.00
2019-02-17T17:55:13.201Z,49.20
2019-02-17T17:58:07.923Z,49.10
2019-02-17T18:01:02.194Z,49.20
2019-02-17T18:03:57.260Z,49.60
2019-02-17T18:06:51.921Z,49.40
2019-02-17T18:09:47.294Z,49.20
2019-02-17T18:12:41.980Z,49.20
2019-02-17T18:15:36.564Z,49.20
2019-02-17T18:18:31.396Z,49.00
2019-02-17T18:21:26.188Z,48.90
2019-02-17T18:24:20.978Z,48.60
2019-02-17T18:27:15.849Z,47.70
2019-02-17T18:30:11.613Z,48.00
2019-02-17T18:33:07.381Z,47.60
2019-02-17T18:36:02.244Z,47.50
2019-02-17T18:38:56.840Z,47.30
2019-02-17T18:41:51.605Z,46.90
2019-02-17T18:44:46.665Z,46.70
2019-02-17T18:47:41.647Z,46.70
2019-02-17T18:50:36.702Z,46.60
2019-02-17T18:53:31.525Z,46.60
2019-02-17T18:56:26.400Z,46.50
2019-02-17T18:59:21.340Z,46.60
2019-02-17T19:02:16.199Z,46.70
2019-02-17T19:05:11.415Z,46.80
2019-02-17T19:08:06.340Z,47.00
2019-02-17T19:11:00.933Z,47.20
2019-02-17T19:13:55.783Z,47.20
2019-02-17T19:16:50.297Z,47.10
2019-02-17T19:19:45.103Z,47.10
2019-02-17T19:22:39.627Z,46.80
2019-02-17T19:25:34.649Z,46.90
2019-02-17T19:28:29.204Z,46.70
2019-02-17T19:31:23.770Z,46.50
2019-02-17T19:34:18.758Z,46.60
2019-02-17T19:37:14.464Z,46.40
2019-02-17T19:40:09.324Z,46.30
2019-02-17T19:43:04.129Z,46.20
2019-02-17T19:45:58.683Z,46.60
2019-02-17T19:48:53.728Z,46.10
2019-02-17T19:51:49.712Z,46.10
2019-02-17T19:54:43.864Z,46.00
2019-02-17T19:57:38.612Z,45.90
2019-02-17T20:00:33.644Z,45.80
2019-02-17T20:03:46.076Z,45.60
2019-02-17T20:06:40.942Z,45.60
2019-02-17T20:09:35.804Z,45.90
2019-02-17T20:12:30.430Z,46.10
2019-02-17T20:15:25.507Z,46.30
2019-02-17T20:18:20.354Z,46.60
2019-02-17T20:21:15.073Z,46.80
2019-02-17T20:24:09.711Z,46.90
2019-02-17T20:27:04.338Z,47.30
2019-02-17T20:29:59.120Z,47.50
2019-02-17T20:32:53.853Z,47.70
2019-02-17T20:35:48.724Z,47.70
2019-02-17T20:38:43.610Z,48.00
2019-02-17T20:41:38.463Z,47.90
2019-02-17T20:44:33.027Z,47.60
2019-02-17T20:47:27.734Z,47.70
2019-02-17T20:50:22.500Z,48.00
2019-02-17T20:53:17.382Z,48.20
2019-02-17T20:56:12.247Z,48.40
2019-02-17T20:59:07.041Z,48.40
2019-02-17T21:02:01.710Z,48.30
2019-02-17T21:04:56.670Z,48.30
2019-02-17T21:07:51.336Z,48.30
2019-02-17T21:10:45.766Z,48.50
2019-02-17T21:13:40.525Z,48.60
2019-02-17T21:16:35.130Z,48.70
2019-02-17T21:19:29.843Z,48.80
2019-02-17T21:22:24.909Z,48.90
2019-02-17T21:25:19.819Z,48.80
2019-02-17T21:28:14.405Z,48.30
2019-02-17T21:31:09.233Z,49.00
2019-02-17T21:34:04.086Z,49.10
2019-02-17T21:36:58.906Z,49.20
2019-02-17T21:39:53.735Z,49.20
2019-02-17T21:42:48.251Z,49.60
2019-02-17T21:45:43.020Z,49.90
2019-02-17T21:48:38.365Z,50.10
2019-02-17T21:51:33.215Z,50.30
2019-02-17T21:54:27.817Z,50.40
2019-02-17T21:57:22.472Z,50.60
2019-02-17T22:00:19.418Z,50.60
2019-02-17T22:03:14.764Z,50.50
2019-02-17T22:06:10.251Z,50.50
2019-02-17T22:09:05.218Z,50.70
2019-02-17T22:12:00.247Z,50.60
2019-02-17T22:14:55.021Z,50.70
2019-02-17T22:17:49.703Z,50.90
2019-02-17T22:20:44.470Z,50.70
2019-02-17T22:23:39.993Z,50.80
2019-02-17T22:26:34.545Z,50.40
2019-02-17T22:29:29.188Z,50.10
2019-02-17T22:32:24.039Z,49.90
2019-02-17T22:35:19.104Z,49.70
2019-02-17T22:38:13.731Z,49.40
2019-02-17T22:41:08.336Z,49.00
2019-02-17T22:44:03.098Z,48.10
2019-02-17T22:46:57.735Z,48.80
2019-02-17T22:49:52.615Z,48.90
2019-02-17T22:52:47.527Z,49.00
2019-02-17T22:55:42.512Z,49.20
2019-02-17T22:58:36.914Z,49.50
2019-02-17T23:01:34.793Z,49.80
2019-02-17T23:04:29.624Z,49.90
2019-02-17T23:07:24.210Z,50.00
2019-02-17T23:10:19.055Z,50.10
2019-02-17T23:13:13.908Z,50.10
2019-02-17T23:16:08.657Z,50.20
2019-02-17T23:19:03.445Z,50.30
2019-02-17T23:21:58.386Z,50.10
2019-02-17T23:24:53.237Z,50.50
2019-02-17T23:27:48.625Z,50.00
2019-02-17T23:30:43.160Z,49.70
2019-02-17T23:33:37.990Z,49.50
2019-02-17T23:36:32.595Z,49.70
2019-02-17T23:39:27.385Z,49.80
2019-02-17T23:42:21.869Z,49.70
2019-02-17T23:45:16.759Z,49.80
2019-02-17T23:48:11.940Z,49.90
2019-02-17T23:51:06.545Z,50.10
2019-02-17T23:54:01.124Z,50.20
2019-02-17T23:56:55.987Z,50.50
2019-02-17T23:59:50.609Z,50.90
